Time;durP1;ratioP1;P1;durP2;ratioP2;P2;SDS_P1;SDS_P2;PMS_P1;PMS_P2;Temp;Humidity;BMP_temperature;BMP_pressure;BME280_temperature;BME280_humidity;BME280_pressure;Samples;Min_cycle;Max_cycle;Signal;HPM_P1;HPM_P2
2022/03/26 00:00:44;;;;;;;5.03;3.03;;;1.50;1.40;;;2.37;97.02;96300.72;619307;226;32033;-76
2022/03/26 00:03:26;;;;;;;6.65;4.10;;;1.30;1.40;;;2.22;92.72;96303.27;619333;225;42586;-78
2022/03/26 00:06:08;;;;;;;6.55;3.85;;;1.30;1.40;;;2.10;96.16;96306.61;647287;216;31643;-77
2022/03/26 00:08:50;;;;;;;5.75;4.28;;;1.30;1.40;;;2.10;99.73;96303.63;648501;212;31691;-77
2022/03/26 00:11:32;;;;;;;4.95;3.80;;;1.30;1.40;;;2.09;99.19;96304.98;647565;212;41911;-78
2022/03/26 00:14:13;;;;;;;6.20;4.50;;;1.40;1.40;;;2.18;98.39;96305.05;632436;222;31936;-77
2022/03/26 00:16:56;;;;;;;5.62;4.80;;;1.40;1.40;;;2.19;98.56;96305.91;619749;226;31888;-77
2022/03/26 00:19:37;;;;;;;7.62;4.57;;;1.30;1.40;;;2.08;99.35;96304.75;647224;216;42177;-77
2022/03/26 00:22:19;;;;;;;5.57;4.30;;;1.10;1.40;;;2.02;98.46;96305.91;647780;212;31674;-77
2022/03/26 00:25:01;;;;;;;9.07;4.87;;;1.00;1.40;;;1.93;99.37;96308.03;647387;212;42332;-77
2022/03/26 00:27:42;;;;;;;8.45;4.95;;;1.00;1.40;;;1.84;99.54;96313.54;619536;226;32215;-77
2022/03/26 00:30:41;;;;;;;6.55;5.25;;;0.90;1.40;;;1.83;100.00;96306.89;620298;222;31859;-77
2022/03/26 00:35:52;;;;;;;5.82;4.43;;;0.90;1.40;;;1.79;100.00;96309.19;646828;216;42562;-77
2022/03/26 00:38:34;;;;;;;7.37;4.03;;;0.90;1.40;;;1.76;100.00;96310.94;647563;216;31528;-77
2022/03/26 00:41:19;;;;;;;6.37;3.40;;;0.80;1.40;;;1.68;100.00;96312.96;649056;212;31538;-78
2022/03/26 00:44:21;;;;;;;4.65;4.25;;;0.70;1.40;;;1.63;100.00;96312.66;620861;225;32730;-77
2022/03/26 00:47:06;;;;;;;5.65;3.80;;;0.60;1.40;;;1.56;100.00;96308.72;631461;222;31824;-78
2022/03/26 00:49:52;;;;;;;3.60;3.30;;;0.60;1.40;;;1.52;100.00;96303.59;619485;226;42576;-75
2022/03/26 00:52:34;;;;;;;7.20;4.35;;;0.70;1.40;;;1.56;100.00;96305.84;648581;212;31612;-76
2022/03/26 00:55:15;;;;;;;5.45;3.85;;;0.70;1.40;;;1.74;100.00;96299.43;647187;212;31611;-76
2022/03/26 00:57:58;;;;;;;6.78;3.25;;;0.80;1.40;;;1.74;100.00;96300.94;647668;216;31593;-76
2022/03/26 01:00:42;;;;;;;5.47;4.80;;;0.80;1.40;;;1.68;100.00;96303.08;621019;225;31869;-76
2022/03/26 01:03:28;;;;;;;3.87;3.03;;;0.70;1.40;;;1.53;100.00;96307.91;620587;222;31872;-77
2022/03/26 01:06:48;;;;;;;4.28;3.87;;;0.50;1.40;;;1.44;100.00;96314.94;616010;226;32244;-78
2022/03/26 01:09:35;;;;;;;10.63;2.87;;;0.40;1.40;;;1.30;100.00;96316.88;621813;222;31881;-78
2022/03/26 01:12:24;;;;;;;6.30;3.85;;;0.30;1.40;;;1.23;100.00;96322.99;618424;222;31988;-76
2022/03/26 01:15:09;;;;;;;4.62;4.20;;;0.20;1.40;;;1.15;100.00;96318.75;646002;216;31607;-77
2022/03/26 01:17:54;;;;;;;9.85;4.12;;;0.30;1.40;;;1.12;100.00;96314.34;647892;216;31557;-78
2022/03/26 01:20:39;;;;;;;6.25;4.05;;;0.20;1.40;;;1.09;100.00;96321.48;618890;226;31932;-77
2022/03/26 01:23:23;;;;;;;5.90;4.45;;;0.20;1.40;;;1.05;100.00;96314.27;620774;226;31924;-79
2022/03/26 01:26:10;;;;;;;4.25;2.70;;;0.20;1.40;;;1.08;100.00;96315.38;646914;212;32197;-79
2022/03/26 01:28:58;;;;;;;9.98;4.03;;;0.20;1.40;;;1.08;100.00;96314.62;646707;216;31557;-77
2022/03/26 01:31:43;;;;;;;7.40;3.97;;;0.20;1.40;;;1.05;100.00;96313.31;647264;216;31637;-78
2022/03/26 01:35:53;;;;;;;6.18;3.42;;;0.10;1.40;;;0.90;100.00;96315.20;647309;212;31964;-77
2022/03/26 01:38:34;;;;;;;5.90;3.10;;;0.10;1.40;;;0.91;100.00;96313.63;646986;216;31697;-78
2022/03/26 01:41:16;;;;;;;7.97;4.50;;;0.10;1.40;;;0.91;100.00;96319.99;620448;226;32010;-77
2022/03/26 01:44:04;;;;;;;8.25;5.12;;;0.00;1.40;;;0.88;100.00;96318.66;646939;216;31716;-75
2022/03/26 01:46:53;;;;;;;4.22;3.80;;;0.10;1.40;;;0.79;100.00;96314.93;646445;216;31563;-76
2022/03/26 01:49:33;;;;;;;6.82;5.32;;;0.00;1.40;;;0.71;100.00;96321.88;647509;216;31556;-77
2022/03/26 01:52:15;;;;;;;5.65;2.50;;;-0.10;1.40;;;0.74;100.00;96315.83;618996;226;32057;-77
2022/03/26 01:54:58;;;;;;;4.35;3.95;;;-0.10;1.40;;;0.71;100.00;96315.77;647821;212;31615;-77
2022/03/26 01:57:39;;;;;;;3.40;3.10;;;-0.20;1.40;;;0.60;100.00;96312.31;647447;216;31579;-76
2022/03/26 02:00:21;;;;;;;3.92;3.35;;;-0.10;1.40;;;0.60;100.00;96309.42;648579;216;31911;-77
2022/03/26 02:03:03;;;;;;;11.02;3.70;;;-0.10;1.40;;;0.66;100.00;96310.83;647524;212;31756;-77
2022/03/26 02:05:47;;;;;;;8.10;3.70;;;-0.10;1.40;;;0.69;100.00;96308.94;646816;213;42734;-76
2022/03/26 02:08:29;;;;;;;10.55;3.70;;;-0.10;1.40;;;0.69;100.00;96306.86;646805;216;31607;-77
2022/03/26 02:13:52;;;;;;;4.87;4.37;;;0.10;1.40;;;0.88;100.00;96303.39;647427;212;31575;-77
2022/03/26 02:16:34;;;;;;;7.60;4.57;;;0.10;1.40;;;0.84;100.00;96308.23;646305;214;31571;-77
2022/03/26 02:19:15;;;;;;;4.05;3.75;;;0.00;1.40;;;0.75;100.00;96310.69;620862;226;32729;-76
2022/03/26 02:21:58;;;;;;;5.45;3.92;;;0.00;1.40;;;0.73;100.00;96308.89;647670;216;31639;-76
2022/03/26 02:24:40;;;;;;;4.20;3.90;;;0.00;1.40;;;0.73;100.00;96310.33;620009;226;32005;-76
2022/03/26 02:27:23;;;;;;;3.30;2.80;;;-0.10;1.40;;;0.63;100.00;96310.25;620295;226;32300;-77
2022/03/26 02:30:06;;;;;;;4.70;4.32;;;-0.20;1.40;;;0.59;100.00;96311.84;647243;212;31566;-77
2022/03/26 02:32:48;;;;;;;5.70;4.00;;;-0.10;1.40;;;0.53;100.00;96309.34;647795;216;31574;-77
2022/03/26 02:38:27;;;;;;;2.90;2.65;;;-0.20;1.40;;;0.51;100.00;96309.50;646608;216;31556;-77
2022/03/26 02:41:09;;;;;;;11.12;3.65;;;-0.30;1.40;;;0.50;100.00;96305.41;620787;222;31913;-77
2022/03/26 02:43:51;;;;;;;7.03;2.55;;;-0.20;1.40;;;0.50;100.00;96303.81;646576;216;31631;-77
2022/03/26 02:46:33;;;;;;;5.78;4.25;;;-0.30;1.40;;;0.45;100.00;96302.33;618777;226;31942;-77
2022/03/26 02:49:15;;;;;;;6.05;3.35;;;-0.30;1.40;;;0.43;100.00;96307.70;647704;216;31565;-77
2022/03/26 02:52:00;;;;;;;5.60;3.78;;;-0.40;1.40;;;0.43;100.00;96309.20;618821;226;32170;-76
2022/03/26 02:54:42;;;;;;;2.30;2.20;;;-0.40;1.40;;;0.39;100.00;96315.46;619826;226;32204;-77
2022/03/26 02:57:25;;;;;;;10.35;3.83;;;-0.50;1.40;;;0.37;100.00;96316.92;646018;212;31628;-76
2022/03/26 03:00:07;;;;;;;5.25;3.40;;;-0.40;1.40;;;0.32;100.00;96315.06;619243;226;32038;-77
2022/03/26 03:02:49;;;;;;;5.75;2.87;;;-0.50;1.40;;;0.32;100.00;96322.00;647525;216;31564;-77
2022/03/26 03:05:31;;;;;;;3.78;3.47;;;-0.50;1.40;;;0.37;100.00;96315.20;646990;216;42205;-76
2022/03/26 03:08:14;;;;;;;6.25;2.87;;;-0.40;1.40;;;0.33;100.00;96323.24;612181;222;32539;-77
2022/03/26 03:10:55;;;;;;;5.80;4.87;;;-0.50;1.40;;;0.32;100.00;96326.00;646864;212;31655;-77
2022/03/26 03:13:38;;;;;;;5.05;3.58;;;-0.50;1.40;;;0.28;100.00;96326.39;647314;216;31570;-77
2022/03/26 03:16:18;;;;;;;6.18;2.85;;;-0.50;1.40;;;0.31;100.00;96331.12;648254;212;31749;-77
2022/03/26 03:19:00;;;;;;;5.72;1.80;;;-0.50;1.40;;;0.29;100.00;96327.18;646806;216;31599;-76
2022/03/26 03:21:42;;;;;;;4.10;2.65;;;-0.50;1.40;;;0.27;100.00;96331.01;648062;213;31732;-77
2022/03/26 03:24:24;;;;;;;4.15;2.72;;;-0.40;1.40;;;0.34;100.00;96329.95;646765;216;31554;-77
2022/03/26 03:27:06;;;;;;;6.35;3.50;;;-0.50;1.40;;;0.43;100.00;96332.72;646669;216;31517;-76
2022/03/26 03:29:49;;;;;;;7.60;4.03;;;-0.40;1.40;;;0.40;100.00;96332.67;647021;216;31526;-76
2022/03/26 03:32:32;;;;;;;6.50;2.90;;;-0.30;1.40;;;0.36;100.00;96342.12;646470;216;32059;-77
2022/03/26 03:38:28;;;;;;;5.60;3.05;;;-0.50;1.40;;;0.23;100.00;96339.18;646469;212;31635;-77
2022/03/26 03:41:10;;;;;;;4.93;3.33;;;-0.50;1.40;;;0.19;100.00;96341.04;620939;225;31894;-77
2022/03/26 03:43:54;;;;;;;5.20;3.40;;;-0.40;1.40;;;0.38;100.00;96338.36;647205;216;31626;-77
2022/03/26 03:46:36;;;;;;;6.68;4.40;;;-0.40;1.40;;;0.33;100.00;96334.24;620196;226;31933;-77
2022/03/26 03:49:19;;;;;;;3.50;2.87;;;-0.30;1.40;;;0.34;100.00;96334.36;620782;222;32113;-77
2022/03/26 03:52:04;;;;;;;5.30;4.05;;;-0.30;1.40;;;0.42;100.00;96335.56;645830;216;31572;-77
2022/03/26 03:54:46;;;;;;;4.03;3.60;;;-0.10;1.40;;;0.40;100.00;96334.87;646890;216;31735;-77
2022/03/26 03:57:27;;;;;;;5.95;4.20;;;-0.20;1.40;;;0.38;100.00;96335.86;646845;216;32342;-77
2022/03/26 04:00:18;;;;;;;4.95;3.67;;;-0.30;1.40;;;0.32;100.00;96328.59;646349;216;31603;-77
2022/03/26 04:03:00;;;;;;;3.97;3.45;;;-0.30;1.40;;;0.28;100.00;96330.88;621173;222;32088;-77
2022/03/26 04:05:41;;;;;;;9.80;3.25;;;-0.40;1.40;;;0.23;100.00;96329.74;646727;216;31978;-77
2022/03/26 04:08:30;;;;;;;5.00;3.30;;;-0.50;1.40;;;0.14;100.00;96330.18;634483;212;31855;-76
2022/03/26 04:11:12;;;;;;;3.72;2.60;;;-0.50;1.40;;;0.08;100.00;96332.96;620562;222;32072;-77
2022/03/26 04:13:54;;;;;;;7.30;4.50;;;-0.60;1.40;;;0.03;100.00;96327.63;645828;213;31581;-76
2022/03/26 04:16:37;;;;;;;4.07;3.60;;;-0.60;1.40;;;0.01;100.00;96322.50;620518;222;31998;-75
2022/03/26 04:19:19;;;;;;;6.18;3.72;;;-0.50;1.40;;;0.10;100.00;96329.20;619200;222;32567;-77
2022/03/26 04:22:00;;;;;;;5.28;4.78;;;-0.40;1.40;;;0.14;100.00;96324.91;648894;212;31985;-77
2022/03/26 04:24:42;;;;;;;5.50;4.20;;;-0.40;1.40;;;0.28;100.00;96326.94;619835;226;32112;-76
2022/03/26 04:27:27;;;;;;;5.40;4.75;;;-0.30;1.40;;;0.22;100.00;96330.16;646834;212;31581;-77
2022/03/26 04:30:10;;;;;;;8.32;3.92;;;-0.50;1.40;;;0.07;100.00;96328.84;645991;216;31596;-77
2022/03/26 04:32:52;;;;;;;6.65;4.35;;;-0.80;1.40;;;-0.09;100.00;96330.62;647711;212;31678;-77
2022/03/26 04:35:51;;;;;;;8.07;3.58;;;-0.90;1.40;;;-0.15;100.00;96332.14;647448;216;31606;-77
2022/03/26 04:38:33;;;;;;;4.28;3.87;;;-0.70;1.40;;;-0.20;100.00;96330.66;619710;222;31884;-77
2022/03/26 04:41:14;;;;;;;5.40;4.05;;;-0.80;1.40;;;-0.14;100.00;96336.22;646948;212;32251;-76
2022/03/26 04:43:59;;;;;;;8.50;4.50;;;-0.70;1.40;;;-0.10;100.00;96344.34;646792;216;31567;-77
2022/03/26 04:46:41;;;;;;;7.32;2.95;;;-0.70;1.40;;;0.06;100.00;96346.28;645414;216;32412;-76
2022/03/26 04:49:26;;;;;;;5.30;4.57;;;-0.70;1.40;;;0.01;100.00;96344.19;619128;226;31887;-77
2022/03/26 04:52:08;;;;;;;4.20;3.80;;;-0.70;1.40;;;-0.09;100.00;96347.83;647151;212;31579;-77
2022/03/26 04:54:50;;;;;;;7.05;3.50;;;-0.90;1.40;;;-0.24;100.00;96343.41;647974;212;31678;-77
2022/03/26 04:57:32;;;;;;;3.62;3.30;;;-1.00;1.40;;;-0.42;100.00;96329.83;647460;216;31565;-77
2022/03/26 05:00:17;;;;;;;6.18;4.75;;;-1.10;1.40;;;-0.32;100.00;96334.77;647335;216;31594;-78
2022/03/26 05:02:58;;;;;;;3.95;3.12;;;-1.10;1.40;;;-0.30;100.00;96333.45;646681;212;31578;-77
2022/03/26 05:05:40;;;;;;;4.15;3.75;;;-0.90;1.40;;;-0.17;100.00;96332.48;648411;216;31623;-77
2022/03/26 05:08:23;;;;;;;4.20;3.80;;;-0.80;1.40;;;-0.12;100.00;96334.48;619072;226;31909;-77
2022/03/26 05:11:05;;;;;;;4.90;3.30;;;-0.60;1.40;;;0.00;100.00;96333.98;648468;216;31572;-77
2022/03/26 05:13:46;;;;;;;6.70;4.28;;;-0.50;1.40;;;0.15;100.00;96337.05;647549;216;31521;-77
2022/03/26 05:16:35;;;;;;;6.12;3.37;;;-0.60;1.40;;;0.13;100.00;96346.38;621279;226;31896;-77
2022/03/26 05:19:22;;;;;;;7.18;3.87;;;-0.70;1.40;;;0.17;100.00;96343.94;650321;212;31535;-77
2022/03/26 05:22:08;;;;;;;3.97;3.60;;;-0.70;1.40;;;0.01;100.00;96346.81;646850;212;31570;-76
2022/03/26 05:25:00;;;;;;;7.43;2.15;;;-0.80;1.40;;;0.04;100.00;96346.39;647378;212;31580;-77
2022/03/26 05:27:53;;;;;;;9.00;3.80;;;-0.90;1.40;;;0.10;100.00;96347.69;648665;212;32136;-78
2022/03/26 05:30:35;;;;;;;3.42;3.10;;;-0.90;1.40;;;-0.13;100.00;96352.17;648424;212;31785;-77
2022/03/26 05:35:56;;;;;;;7.18;4.97;;;-1.10;1.40;;;-0.19;100.00;96361.84;621021;223;32087;-78
2022/03/26 05:38:44;;;;;;;2.17;2.00;;;-1.10;1.40;;;-0.18;100.00;96363.78;619523;226;31896;-76
2022/03/26 05:41:26;;;;;;;13.65;4.20;;;-1.00;1.40;;;-0.09;100.00;96358.86;643237;215;31599;-77
2022/03/26 05:44:19;;;;;;;5.90;2.95;;;-0.90;1.40;;;0.05;100.00;96357.39;649059;212;31561;-79
2022/03/26 05:47:06;;;;;;;4.20;3.50;;;-0.70;1.40;;;0.23;100.00;96360.16;622364;225;31869;-79
2022/03/26 05:49:58;;;;;;;9.93;3.80;;;-0.40;1.40;;;0.32;100.00;96365.55;645666;216;31699;-76
2022/03/26 05:52:39;;;;;;;5.37;3.70;;;-0.30;1.40;;;0.40;100.00;96370.23;647455;212;31658;-76
2022/03/26 05:55:21;;;;;;;8.00;4.05;;;-0.20;1.40;;;0.54;100.00;96370.03;647610;212;31647;-75
2022/03/26 05:58:03;;;;;;;7.05;4.20;;;-0.30;1.40;;;0.72;100.00;96369.77;647059;216;32052;-77
2022/03/26 06:00:47;;;;;;;8.23;3.10;;;-0.20;1.40;;;0.79;100.00;96366.00;619788;226;31913;-76
2022/03/26 06:03:26;;;;;;;5.03;3.85;;;0.10;1.40;;;0.95;100.00;96370.56;619461;222;31923;-75
2022/03/26 06:06:08;;;;;;;9.02;5.60;;;0.30;1.40;;;1.06;100.00;96373.69;646658;216;31624;-75
2022/03/26 06:19:25;;;;;;;7.37;4.50;;;0.80;1.40;;;1.84;100.00;96390.42;646333;216;31626;-77
2022/03/26 06:22:06;;;;;;;7.50;6.25;;;1.00;1.40;;;2.09;100.00;96391.05;619124;226;32069;-76
2022/03/26 06:24:47;;;;;;;9.88;5.80;;;1.20;1.40;;;2.21;100.00;96385.51;646933;216;31564;-75
2022/03/26 06:27:34;;;;;;;5.87;4.22;;;1.30;1.40;;;2.39;100.00;96389.84;645998;212;32012;-77
2022/03/26 06:30:29;;;;;;;14.27;7.70;;;1.50;1.40;;;2.56;100.00;96391.64;621342;222;31861;-78
2022/03/26 06:36:06;;;;;;;10.60;5.27;;;1.80;1.40;;;2.95;100.00;96392.45;647024;216;31543;-77
2022/03/26 06:38:58;;;;;;;9.82;5.28;;;2.00;1.40;;;3.15;100.00;96391.53;641579;215;42448;-77
2022/03/26 06:41:44;;;;;;;7.53;4.43;;;2.10;1.40;;;3.36;100.00;96392.31;648783;212;33488;-77
2022/03/26 06:44:31;;;;;;;9.40;6.57;;;2.30;1.40;;;3.66;100.00;96395.21;647367;213;31553;-77
2022/03/26 06:47:31;;;;;;;10.43;6.22;;;2.60;1.40;;;3.84;100.00;96398.50;650425;212;34430;-81
2022/03/26 06:50:24;;;;;;;8.15;6.10;;;2.90;1.40;;;4.10;100.00;96399.64;646637;212;31606;-79
2022/03/26 07:03:44;;;;;;;10.27;7.43;;;3.90;1.40;;;5.14;100.00;96410.16;646224;216;31600;-79
2022/03/26 07:06:50;;;;;;;10.20;8.05;;;4.10;1.40;;;5.40;100.00;96406.77;646483;213;31718;-80
2022/03/26 07:09:52;;;;;;;9.02;8.23;;;4.30;1.40;;;5.75;100.00;96406.34;623906;222;32823;-79
2022/03/26 07:14:17;;;;;;;10.02;7.00;;;4.60;1.40;;;6.06;100.00;96400.70;624325;222;31846;-81
2022/03/26 07:17:12;;;;;;;9.50;6.60;;;4.90;1.40;;;6.36;99.33;96404.79;649116;212;31785;-80
2022/03/26 07:19:57;;;;;;;11.52;6.93;;;5.10;1.40;;;6.57;98.19;96407.60;646410;216;31583;-79
2022/03/26 07:22:47;;;;;;;9.48;6.70;;;5.40;1.40;;;6.74;97.06;96412.31;647553;216;31999;-78
2022/03/26 07:25:30;;;;;;;12.18;6.93;;;5.60;1.40;;;6.94;96.01;96410.52;648245;216;31554;-79
2022/03/26 07:28:18;;;;;;;8.68;6.80;;;5.80;1.40;;;7.25;93.92;96409.77;646937;212;31576;-78
2022/03/26 07:31:06;;;;;;;9.43;7.32;;;6.10;1.40;;;7.49;91.99;96414.53;635417;220;31681;-80
2022/03/26 07:35:55;;;;;;;11.88;7.62;;;6.50;1.40;;;7.95;89.23;96416.22;646418;212;42183;-80
2022/03/26 07:38:37;;;;;;;10.20;7.25;;;6.70;1.40;;;8.03;87.36;96415.41;646612;212;31588;-80
2022/03/26 07:41:21;;;;;;;9.63;6.50;;;6.80;1.40;;;8.13;86.86;96412.64;647470;216;31921;-78
2022/03/26 07:44:04;;;;;;;10.15;7.07;;;7.00;1.40;;;8.54;86.20;96411.48;648921;212;42240;-78
2022/03/26 07:46:49;;;;;;;13.77;7.93;;;7.20;1.40;;;8.67;83.52;96409.69;621722;226;43304;-78
2022/03/26 07:49:31;;;;;;;15.20;8.85;;;7.40;1.40;;;8.45;81.54;96413.67;647642;216;31712;-76
2022/03/26 07:52:14;;;;;;;14.47;8.00;;;7.80;1.40;;;8.61;80.82;96414.27;618544;222;32652;-78
2022/03/26 07:54:58;;;;;;;12.98;7.60;;;8.00;1.40;;;8.63;79.38;96412.16;644125;219;31556;-77
2022/03/26 07:57:41;;;;;;;12.57;8.60;;;8.00;1.40;;;8.81;79.65;96410.75;646304;216;31717;-76
2022/03/26 08:00:27;;;;;;;16.35;10.35;;;8.10;1.40;;;9.35;79.36;96412.22;622778;222;32059;-78
2022/03/26 08:03:10;;;;;;;16.23;9.63;;;8.50;1.40;;;9.69;77.48;96407.98;648761;216;31605;-78
2022/03/26 08:05:51;;;;;;;16.45;8.63;;;8.50;1.40;;;9.72;74.88;96408.30;646164;212;31698;-78
2022/03/26 08:08:32;;;;;;;13.02;7.82;;;8.90;1.40;;;9.51;75.27;96416.72;648112;216;31598;-78
2022/03/26 08:11:19;;;;;;;12.47;7.43;;;8.80;1.40;;;9.38;73.61;96416.11;619245;226;32070;-78
2022/03/26 08:14:07;;;;;;;13.57;7.53;;;8.90;1.40;;;9.63;74.74;96418.26;647334;216;31728;-78
2022/03/26 08:16:49;;;;;;;12.47;8.33;;;9.10;1.40;;;9.89;72.67;96419.86;647129;212;31581;-77
2022/03/26 08:19:34;;;;;;;17.10;8.53;;;9.30;1.40;;;10.36;72.87;96420.99;618988;226;32140;-77
2022/03/26 08:22:16;;;;;;;11.87;7.60;;;9.70;1.40;;;10.52;69.39;96414.26;619997;226;32490;-78
2022/03/26 08:24:58;;;;;;;19.33;9.23;;;9.70;1.40;;;10.63;69.96;96412.97;643126;213;31606;-78
2022/03/26 08:27:39;;;;;;;13.73;7.93;;;9.90;1.40;;;10.67;67.79;96416.58;648193;216;31613;-79
2022/03/26 08:30:37;;;;;;;14.87;8.17;;;9.90;1.40;;;10.98;70.40;96411.97;619959;222;32413;-79
2022/03/26 08:35:52;;;;;;;14.30;8.50;;;10.70;1.40;;;11.87;68.47;96414.36;619541;226;42786;-78
2022/03/26 08:38:34;;;;;;;14.93;8.70;;;10.90;1.40;;;12.23;66.49;96415.62;650718;212;31709;-79
2022/03/26 08:41:16;;;;;;;13.20;7.40;;;11.30;1.40;;;12.25;66.06;96413.25;648506;216;32146;-79
2022/03/26 08:43:58;;;;;;;14.40;8.40;;;11.40;1.40;;;12.88;65.33;96416.02;648477;212;31638;-78
2022/03/26 08:46:42;;;;;;;13.23;8.83;;;11.90;1.40;;;13.23;64.17;96416.86;647623;216;31612;-79
2022/03/26 08:49:28;;;;;;;17.57;8.07;;;12.10;1.40;;;13.34;59.55;96420.92;648471;213;31606;-77
2022/03/26 08:52:06;;;;;;;14.33;9.33;;;12.50;1.40;;;13.67;59.47;96420.41;647091;212;42213;-77
2022/03/26 08:54:49;;;;;;;15.53;8.50;;;12.70;1.40;;;14.05;57.64;96423.89;647092;216;42192;-79
2022/03/26 08:57:37;;;;;;;14.80;8.17;;;13.10;1.40;;;14.13;55.78;96424.08;620128;226;31921;-80
2022/03/26 09:00:19;;;;;;;13.63;9.00;;;13.50;1.40;;;14.67;55.77;96422.05;619916;226;31902;-80
2022/03/26 09:05:38;;;;;;;11.15;8.23;;;14.40;1.40;;;15.82;49.66;96412.30;620130;222;31892;-77
2022/03/26 09:08:20;;;;;;;12.18;8.68;;;16.10;1.40;;;15.64;47.43;96414.01;636630;212;31806;-77
2022/03/26 09:11:03;;;;;;;12.70;8.10;;;16.40;1.40;;;18.18;48.98;96411.56;645956;212;31621;-79
2022/03/26 09:13:45;;;;;;;13.77;8.13;;;19.30;1.40;;;20.35;46.53;96404.95;647560;216;31582;-78
2022/03/26 09:16:26;;;;;;;14.38;9.38;;;20.90;1.40;;;22.30;36.39;96406.94;647235;216;31711;-78
2022/03/26 09:19:10;;;;;;;15.93;9.95;;;20.60;99.90;;;23.16;39.14;96408.16;647367;216;42382;-78
2022/03/26 09:21:52;;;;;;;16.00;10.70;;;21.80;1.40;;;18.56;38.12;96411.45;646702;212;31628;-78
2022/03/26 09:24:33;;;;;;;14.80;10.65;;;18.60;1.40;;;20.25;38.32;96401.61;647602;212;31620;-77
2022/03/26 09:27:15;;;;;;;14.65;9.57;;;20.00;99.90;;;21.71;35.24;96402.69;649205;212;33556;-79
2022/03/26 09:30:06;;;;;;;18.73;10.68;;;21.00;1.40;;;24.74;35.81;96391.16;647956;212;31590;-79
2022/03/26 09:32:50;;;;;;;15.77;10.60;;;22.00;99.90;;;25.33;36.06;96393.16;647112;212;31899;-79
2022/03/26 09:35:56;;;;;;;15.30;10.50;;;22.70;99.90;;;26.61;32.30;96388.29;619758;226;42767;-78
2022/03/26 09:38:38;;;;;;;19.37;11.07;;;23.10;99.90;;;25.39;32.20;96394.63;619721;226;42665;-77
2022/03/26 09:41:22;;;;;;;19.05;12.77;;;22.50;99.90;;;27.63;30.19;96392.62;646407;216;32010;-77
2022/03/26 09:44:11;;;;;;;16.00;10.48;;;23.60;99.90;;;26.53;29.18;96384.66;646928;216;31689;-78
2022/03/26 09:46:59;;;;;;;16.98;12.32;;;23.20;99.90;;;28.11;30.86;96388.26;647263;212;31630;-77
2022/03/26 09:49:40;;;;;;;17.67;12.43;;;22.40;99.90;;;26.47;29.47;96387.59;647313;212;31640;-77
2022/03/26 09:52:22;;;;;;;17.17;11.27;;;23.60;99.90;;;25.16;29.65;96391.56;620098;226;31976;-80
2022/03/26 09:55:05;;;;;;;16.48;11.35;;;22.80;99.90;;;23.58;31.00;96397.25;646090;216;31608;-77
2022/03/26 09:57:46;;;;;;;18.92;11.98;;;20.80;99.90;;;22.88;33.32;96395.02;647950;212;32278;-78
2022/03/26 10:00:34;;;;;;;17.42;11.82;;;21.90;99.90;;;27.21;28.01;96391.25;643185;217;31618;-78
2022/03/26 10:03:18;;;;;;;15.63;10.73;;;23.90;99.90;;;28.10;28.71;96381.81;648266;212;31594;-79
2022/03/26 10:06:07;;;;;;;17.17;12.07;;;23.90;99.90;;;30.18;27.23;96372.52;619240;222;32052;-78
2022/03/26 10:08:47;;;;;;;16.42;12.65;;;24.80;99.90;;;28.76;27.26;96377.06;612251;222;42952;-78
2022/03/26 10:11:35;;;;;;;15.50;11.38;;;24.40;99.90;;;29.57;26.08;96373.19;649487;216;32156;-79
2022/03/26 10:14:17;;;;;;;24.45;12.20;;;24.20;99.90;;;29.44;28.17;96372.27;647406;216;31594;-80
2022/03/26 10:17:14;;;;;;;15.70;12.70;;;24.80;99.90;;;29.28;26.66;96372.61;648419;216;31685;-79
2022/03/26 10:20:01;;;;;;;20.88;12.73;;;25.10;99.90;;;29.92;26.26;96373.63;621718;226;32099;-79
2022/03/26 10:22:43;;;;;;;16.77;11.35;;;24.60;99.90;;;30.42;26.29;96365.57;646730;212;31800;-79
2022/03/26 10:25:27;;;;;;;16.27;12.30;;;25.30;1.40;;;29.46;25.53;96368.72;646283;216;32165;-78
2022/03/26 10:28:09;;;;;;;15.43;11.60;;;25.30;99.90;;;28.92;25.08;96367.45;646874;216;31638;-78
2022/03/26 10:35:58;;;;;;;17.77;12.10;;;24.80;99.90;;;28.91;25.68;96363.46;616913;226;32017;-78
2022/03/26 10:38:41;;;;;;;15.60;11.95;;;24.90;99.90;;;30.99;23.79;96353.52;620676;226;32070;-78
2022/03/26 10:41:21;;;;;;;15.48;11.55;;;24.90;99.90;;;29.84;24.76;96360.34;647371;216;31643;-78
2022/03/26 10:46:46;;;;;;;17.40;11.75;;;25.80;99.90;;;30.02;24.41;96353.14;647824;212;31732;-78
2022/03/26 10:49:33;;;;;;;17.27;12.07;;;25.80;1.40;;;32.73;22.67;96351.75;648058;216;31883;-78
2022/03/26 10:52:22;;;;;;;17.92;12.02;;;26.40;99.90;;;32.75;22.74;96351.91;647777;212;31687;-80
2022/03/26 10:55:13;;;;;;;19.98;12.60;;;26.00;99.90;;;31.43;24.36;96348.13;647433;216;31683;-78
2022/03/26 10:57:54;;;;;;;16.65;12.18;;;26.50;99.90;;;32.92;22.25;96347.77;619753;226;31951;-77
2022/03/26 11:00:44;;;;;;;19.05;12.45;;;25.80;99.90;;;32.38;21.35;96347.62;648668;216;31653;-81
2022/03/26 11:03:26;;;;;;;15.55;11.45;;;25.90;99.90;;;33.40;21.36;96335.86;619792;226;31966;-79
2022/03/26 11:06:08;;;;;;;16.50;12.23;;;26.80;99.90;;;28.39;23.23;96352.66;646830;216;31607;-80
2022/03/26 11:09:00;;;;;;;14.60;11.20;;;23.60;99.90;;;29.67;23.89;96340.76;611221;222;32376;-77
2022/03/26 11:11:43;;;;;;;16.48;12.00;;;25.50;99.90;;;22.50;27.13;96359.38;620529;222;32084;-82
2022/03/26 11:14:34;;;;;;;16.12;11.10;;;20.90;99.90;;;25.74;25.54;96349.34;647074;216;31708;-78
2022/03/26 11:17:39;;;;;;;15.90;11.25;;;23.50;99.90;;;27.92;24.47;96343.77;647337;216;31660;-77
2022/03/26 11:23:21;;;;;;;13.82;11.15;;;27.10;1.00;;;29.37;23.23;96336.18;647269;212;31647;-78
2022/03/26 11:26:36;;;;;;;15.68;11.25;;;24.50;99.90;;;25.79;24.44;96341.86;648286;212;31594;-80
2022/03/26 11:29:50;;;;;;;14.30;10.95;;;23.30;99.90;;;26.86;24.46;96335.92;648205;216;31937;-79
2022/03/26 11:35:57;;;;;;;16.40;11.00;;;24.80;99.90;;;26.76;24.37;96335.34;646928;212;35787;-78
2022/03/26 11:38:41;;;;;;;15.07;11.12;;;24.60;99.90;;;29.21;22.10;96320.03;647941;216;31639;-78
2022/03/26 11:41:32;;;;;;;14.40;10.00;;;25.10;99.90;;;31.56;21.93;96318.30;647006;216;31599;-79
2022/03/26 11:44:14;;;;;;;13.98;10.38;;;26.60;99.90;;;31.92;19.72;96316.16;648003;212;31603;-78
2022/03/26 11:52:33;;;;;;;16.45;11.90;;;23.40;26.70;;;26.28;24.20;96318.66;647207;216;32515;-78
2022/03/26 11:55:30;;;;;;;15.82;10.82;;;23.30;99.90;;;28.53;22.64;96309.28;620325;226;32088;-77
2022/03/26 11:58:20;;;;;;;15.80;10.98;;;24.90;99.90;;;32.17;20.80;96294.41;647360;216;31726;-77
2022/03/26 12:01:02;;;;;;;13.50;10.30;;;26.50;99.90;;;33.79;19.70;96288.58;647340;216;31660;-77
2022/03/26 12:03:44;;;;;;;14.45;10.55;;;28.30;99.90;;;29.84;21.38;96293.89;647124;212;31771;-77
2022/03/26 12:09:29;;;;;;;15.50;11.40;;;24.30;99.90;;;28.11;23.47;96287.44;620071;226;42790;-77
2022/03/26 12:15:18;;;;;;;15.32;11.57;;;24.50;99.90;;;32.40;21.20;96273.53;647481;216;31664;-77
2022/03/26 12:18:12;;;;;;;14.85;11.55;;;27.10;99.90;;;30.68;21.89;96271.89;648115;212;31649;-78
2022/03/26 12:20:53;;;;;;;13.65;10.50;;;25.50;99.90;;;34.07;19.63;96269.83;646552;216;32381;-77
2022/03/26 12:23:35;;;;;;;17.12;11.10;;;26.80;1.00;;;34.14;19.39;96265.73;620361;222;32489;-77
2022/03/26 12:26:17;;;;;;;13.82;10.70;;;26.80;99.90;;;31.34;20.63;96276.43;647941;216;31865;-77
2022/03/26 12:29:01;;;;;;;15.75;10.75;;;26.00;99.90;;;32.49;20.51;96271.64;646762;216;31644;-78
2022/03/26 12:31:43;;;;;;;14.77;11.52;;;26.80;99.90;;;28.68;22.17;96271.37;647800;216;42337;-78
2022/03/26 12:35:51;;;;;;;15.35;11.25;;;25.70;99.90;;;30.17;22.56;96261.60;646622;216;31807;-78
2022/03/26 12:38:33;;;;;;;14.90;11.25;;;25.60;99.90;;;32.11;20.17;96266.66;648299;216;31932;-77
2022/03/26 12:41:16;;;;;;;16.05;10.88;;;25.10;99.90;;;28.12;22.00;96270.18;646654;216;42522;-77
2022/03/26 12:44:01;;;;;;;12.37;10.25;;;24.30;99.90;;;28.97;23.38;96259.48;646716;212;31934;-77
2022/03/26 12:46:44;;;;;;;16.25;11.02;;;25.20;99.90;;;29.84;22.08;96259.53;647976;216;31701;-77
2022/03/26 12:49:24;;;;;;;13.77;10.05;;;25.70;99.90;;;31.55;20.86;96252.41;647888;216;31701;-77
2022/03/26 12:52:09;;;;;;;15.25;10.35;;;26.60;99.90;;;32.60;19.63;96243.19;646730;213;31636;-77